createdAt,value
2018-11-11T00:00:46.969Z,19.70
2018-11-11T00:03:17.322Z,19.60
2018-11-11T00:05:48.105Z,19.70
2018-11-11T00:08:21.869Z,19.60
2018-11-11T00:10:52.255Z,19.60
2018-11-11T00:13:22.972Z,19.60
2018-11-11T00:15:53.334Z,19.60
2018-11-11T00:18:23.723Z,19.60
2018-11-11T00:20:54.322Z,19.60
2018-11-11T00:23:24.658Z,19.60
2018-11-11T00:25:55.119Z,19.60
2018-11-11T00:28:25.581Z,19.60
2018-11-11T00:30:56.442Z,19.70
2018-11-11T00:33:26.790Z,19.70
2018-11-11T00:35:57.235Z,19.60
2018-11-11T00:38:27.633Z,19.70
2018-11-11T00:40:58.171Z,19.60
2018-11-11T00:43:28.542Z,19.60
2018-11-11T00:45:58.902Z,19.60
2018-11-11T00:48:29.457Z,19.60
2018-11-11T00:50:59.892Z,19.60
2018-11-11T00:53:30.296Z,19.60
2018-11-11T00:56:00.853Z,19.60
2018-11-11T00:58:31.774Z,19.60
2018-11-11T01:01:02.136Z,19.60
2018-11-11T01:03:32.701Z,19.60
2018-11-11T01:06:03.049Z,19.60
2018-11-11T01:08:33.345Z,19.60
2018-11-11T01:11:03.710Z,19.60
2018-11-11T01:13:34.001Z,19.60
2018-11-11T01:16:04.383Z,19.60
2018-11-11T01:18:34.836Z,19.60
2018-11-11T01:21:05.485Z,19.60
2018-11-11T01:23:39.246Z,19.60
2018-11-11T01:26:09.715Z,19.50
2018-11-11T01:28:40.090Z,19.60
2018-11-11T01:31:15.710Z,19.60
2018-11-11T01:33:46.067Z,19.50
2018-11-11T01:36:16.491Z,19.60
2018-11-11T01:38:47.346Z,19.60
2018-11-11T01:41:18.165Z,19.60
2018-11-11T01:43:49.438Z,19.60
2018-11-11T01:46:20.099Z,19.60
2018-11-11T01:48:50.726Z,19.60
2018-11-11T01:51:21.620Z,19.70
2018-11-11T01:53:52.146Z,19.60
2018-11-11T01:56:22.597Z,19.60
2018-11-11T01:58:52.965Z,19.60
2018-11-11T02:01:23.439Z,19.60
2018-11-11T02:03:53.765Z,19.60
2018-11-11T02:06:24.615Z,19.60
2018-11-11T02:08:57.685Z,19.60
2018-11-11T02:11:28.095Z,19.60
2018-11-11T02:13:58.485Z,19.70
2018-11-11T02:16:28.882Z,19.60
2018-11-11T02:18:59.257Z,19.60
2018-11-11T02:21:29.785Z,19.60
2018-11-11T02:24:00.218Z,19.60
2018-11-11T02:26:31.244Z,19.60
2018-11-11T02:29:02.089Z,19.70
2018-11-11T02:31:33.150Z,19.60
2018-11-11T02:34:04.215Z,19.60
2018-11-11T02:36:34.581Z,19.60
2018-11-11T02:39:09.087Z,19.60
2018-11-11T02:41:40.093Z,19.70
2018-11-11T02:44:10.571Z,19.70
2018-11-11T02:46:41.000Z,19.70
2018-11-11T02:49:11.459Z,19.60
2018-11-11T02:51:41.817Z,19.60
2018-11-11T02:54:12.263Z,19.70
2018-11-11T02:56:42.607Z,19.60
2018-11-11T02:59:13.071Z,19.60
2018-11-11T03:01:44.310Z,19.60
2018-11-11T03:04:14.737Z,19.60
2018-11-11T03:06:45.584Z,19.60
2018-11-11T03:09:16.213Z,19.60
2018-11-11T03:11:46.738Z,19.60
2018-11-11T03:14:17.701Z,19.60
2018-11-11T03:16:48.780Z,19.60
2018-11-11T03:19:19.270Z,19.50
2018-11-11T03:21:49.822Z,19.50
2018-11-11T03:24:21.562Z,19.50
2018-11-11T03:26:52.178Z,19.50
2018-11-11T03:29:23.214Z,19.50
2018-11-11T03:31:54.354Z,19.50
2018-11-11T03:34:25.037Z,19.50
2018-11-11T03:36:55.652Z,19.50
2018-11-11T03:39:26.236Z,19.40
2018-11-11T03:41:56.702Z,19.40
2018-11-11T03:44:27.033Z,19.40
2018-11-11T03:46:57.683Z,19.30
2018-11-11T03:49:28.274Z,19.30
2018-11-11T03:51:59.125Z,19.30
2018-11-11T03:54:29.551Z,19.30
2018-11-11T03:56:59.934Z,19.30
2018-11-11T03:59:30.423Z,19.20
2018-11-11T04:02:00.809Z,19.30
2018-11-11T04:04:31.422Z,19.30
2018-11-11T04:07:02.091Z,19.20
2018-11-11T04:09:32.445Z,19.20
2018-11-11T04:12:02.963Z,19.20
2018-11-11T04:14:34.218Z,19.20
2018-11-11T04:17:05.231Z,19.20
2018-11-11T04:19:35.530Z,19.20
2018-11-11T04:22:10.486Z,19.20
2018-11-11T04:24:40.845Z,19.20
2018-11-11T04:27:12.082Z,19.20
2018-11-11T04:29:42.565Z,19.20
2018-11-11T04:32:12.925Z,19.10
2018-11-11T04:34:43.950Z,19.20
2018-11-11T04:37:14.294Z,19.20
2018-11-11T04:39:44.781Z,19.20
2018-11-11T04:42:16.058Z,19.20
2018-11-11T04:44:47.166Z,19.20
2018-11-11T04:47:18.322Z,19.10
2018-11-11T04:49:49.866Z,19.10
2018-11-11T04:52:21.598Z,19.10
2018-11-11T04:54:52.535Z,19.10
2018-11-11T04:57:22.885Z,19.10
2018-11-11T04:59:53.248Z,19.10
2018-11-11T05:02:23.597Z,19.10
2018-11-11T05:04:54.007Z,19.10
2018-11-11T05:07:24.350Z,19.10
2018-11-11T05:09:55.066Z,19.10
2018-11-11T05:12:25.430Z,19.10
2018-11-11T05:14:55.853Z,19.10
2018-11-11T05:17:26.270Z,19.10
2018-11-11T05:19:56.663Z,19.10
2018-11-11T05:22:27.005Z,19.10
2018-11-11T05:24:58.505Z,19.10
2018-11-11T05:27:29.070Z,19.10
2018-11-11T05:29:59.479Z,19.10
2018-11-11T05:32:29.850Z,19.10
2018-11-11T05:35:00.377Z,19.10
2018-11-11T05:37:30.734Z,19.10
2018-11-11T05:40:01.227Z,19.10
2018-11-11T05:42:31.662Z,19.10
2018-11-11T05:45:02.509Z,19.10
2018-11-11T05:47:32.874Z,19.10
2018-11-11T05:50:03.307Z,19.10
2018-11-11T05:52:33.805Z,19.10
2018-11-11T05:55:09.197Z,19.10
2018-11-11T05:57:39.926Z,19.10
2018-11-11T06:00:13.304Z,19.10
2018-11-11T06:02:44.054Z,19.10
2018-11-11T06:05:15.325Z,19.10
2018-11-11T06:07:45.657Z,19.10
2018-11-11T06:10:16.616Z,19.10
2018-11-11T06:12:47.665Z,19.10
2018-11-11T06:15:17.998Z,19.10
2018-11-11T06:17:48.481Z,19.10
2018-11-11T06:20:18.974Z,19.10
2018-11-11T06:22:49.419Z,19.10
2018-11-11T06:25:19.810Z,19.10
2018-11-11T06:27:52.799Z,19.10
2018-11-11T06:30:23.961Z,19.10
2018-11-11T06:32:54.261Z,19.10
2018-11-11T06:35:25.274Z,19.10
2018-11-11T06:37:55.612Z,19.00
2018-11-11T06:40:25.934Z,19.00
2018-11-11T06:42:56.632Z,19.00
2018-11-11T06:45:27.035Z,19.00
2018-11-11T06:47:57.456Z,19.00
2018-11-11T06:50:27.820Z,19.00
2018-11-11T06:52:58.137Z,19.00
2018-11-11T06:55:28.908Z,19.00
2018-11-11T06:58:06.590Z,19.00
2018-11-11T07:00:36.988Z,19.00
2018-11-11T07:04:16.426Z,19.00
2018-11-11T07:06:47.037Z,19.00
2018-11-11T07:09:17.510Z,18.90
2018-11-11T07:11:47.892Z,18.90
2018-11-11T07:14:18.313Z,18.90
2018-11-11T07:16:49.301Z,18.90
2018-11-11T07:19:19.639Z,18.90
2018-11-11T07:21:51.499Z,18.90
2018-11-11T07:24:21.860Z,19.00
2018-11-11T07:26:52.229Z,19.00
2018-11-11T07:29:22.595Z,19.00
2018-11-11T07:31:53.081Z,19.00
2018-11-11T07:34:23.881Z,19.00
2018-11-11T07:36:54.837Z,19.00
2018-11-11T07:39:25.491Z,19.00
2018-11-11T07:41:55.870Z,19.10
2018-11-11T07:44:26.651Z,19.10
2018-11-11T07:46:58.398Z,19.10
2018-11-11T07:49:28.839Z,19.10
2018-11-11T07:51:59.333Z,19.10
2018-11-11T07:54:29.626Z,19.10
2018-11-11T07:57:00.549Z,19.10
2018-11-11T07:59:32.478Z,19.10
2018-11-11T08:02:02.984Z,19.20
2018-11-11T08:04:33.785Z,19.20
2018-11-11T08:07:06.362Z,19.20
2018-11-11T08:09:36.762Z,19.20
2018-11-11T08:12:07.510Z,19.20
2018-11-11T08:14:38.162Z,19.20
2018-11-11T08:17:11.722Z,19.20
2018-11-11T08:19:43.390Z,19.30
2018-11-11T08:22:14.591Z,19.30
2018-11-11T08:24:48.140Z,19.30
2018-11-11T08:27:18.870Z,19.30
2018-11-11T08:29:50.590Z,19.40
2018-11-11T08:32:21.059Z,19.40
2018-11-11T08:34:51.458Z,19.40
2018-11-11T08:37:22.242Z,19.50
2018-11-11T08:39:52.987Z,19.50
2018-11-11T08:42:24.166Z,19.60
2018-11-11T08:44:54.900Z,19.60
2018-11-11T08:47:25.273Z,19.60
2018-11-11T08:49:55.613Z,19.60
2018-11-11T08:52:27.260Z,19.60
2018-11-11T08:54:58.082Z,19.70
2018-11-11T08:57:28.733Z,19.70
2018-11-11T08:59:59.110Z,19.80
2018-11-11T09:02:30.774Z,19.80
2018-11-11T09:05:08.370Z,19.90
2018-11-11T09:07:39.358Z,19.90
2018-11-11T09:10:11.785Z,20.00
2018-11-11T09:12:43.538Z,20.00
2018-11-11T09:15:16.586Z,20.00
2018-11-11T09:17:46.975Z,20.10
2018-11-11T09:20:18.025Z,20.20
2018-11-11T09:22:48.694Z,20.20
2018-11-11T09:25:19.439Z,20.20
2018-11-11T09:27:49.836Z,20.30
2018-11-11T09:30:20.227Z,20.30
2018-11-11T09:32:50.573Z,20.30
2018-11-11T09:35:21.085Z,20.40
2018-11-11T09:37:51.419Z,20.40
2018-11-11T09:40:21.817Z,20.40
2018-11-11T09:42:52.157Z,20.50
2018-11-11T09:45:22.473Z,20.50
2018-11-11T09:47:52.845Z,20.60
2018-11-11T09:50:23.239Z,20.60
2018-11-11T09:52:53.725Z,20.60
2018-11-11T09:55:23.881Z,20.70
2018-11-11T09:57:54.166Z,20.70
2018-11-11T10:00:24.486Z,20.70
2018-11-11T10:02:58.272Z,20.70
2018-11-11T10:05:33.637Z,20.80
2018-11-11T10:08:09.669Z,20.80
2018-11-11T10:10:49.042Z,20.80
2018-11-11T10:13:42.497Z,20.80
2018-11-11T10:16:16.406Z,20.80
2018-11-11T10:19:50.928Z,20.80
2018-11-11T10:22:28.621Z,20.70
2018-11-11T10:26:01.773Z,20.70
2018-11-11T10:28:42.600Z,20.70
2018-11-11T10:31:18.760Z,20.60
2018-11-11T10:33:57.588Z,20.60
2018-11-11T10:36:34.878Z,20.60
2018-11-11T10:39:16.852Z,20.70
2018-11-11T10:41:52.318Z,20.70
2018-11-11T10:44:30.344Z,20.70
2018-11-11T10:47:03.666Z,20.70
2018-11-11T10:49:36.660Z,20.70
2018-11-11T10:52:06.961Z,20.80
2018-11-11T10:54:37.265Z,20.80
2018-11-11T10:57:07.558Z,20.80
2018-11-11T10:59:37.836Z,20.80
2018-11-11T11:02:13.385Z,20.90
2018-11-11T11:04:48.902Z,20.80
2018-11-11T11:07:19.236Z,20.90
2018-11-11T11:09:49.805Z,20.80
2018-11-11T11:12:20.882Z,20.90
2018-11-11T11:14:51.162Z,20.90
2018-11-11T11:17:21.454Z,20.90
2018-11-11T11:19:51.788Z,20.90
2018-11-11T11:22:22.077Z,20.90
2018-11-11T11:24:52.366Z,20.90
2018-11-11T11:27:22.694Z,20.90
2018-11-11T11:29:52.953Z,20.90
2018-11-11T11:32:23.290Z,20.90
2018-11-11T11:34:53.566Z,20.90
2018-11-11T11:37:23.882Z,20.90
2018-11-11T11:39:54.163Z,20.90
2018-11-11T11:42:25.149Z,20.90
2018-11-11T11:44:55.443Z,21.00
2018-11-11T11:47:25.769Z,21.00
2018-11-11T11:49:56.059Z,21.00
2018-11-11T11:52:26.333Z,21.00
2018-11-11T11:54:56.584Z,21.00
2018-11-11T11:57:27.037Z,21.00
2018-11-11T11:59:57.529Z,21.00
2018-11-11T12:02:28.637Z,21.00
2018-11-11T12:04:58.915Z,21.00
2018-11-11T12:07:29.242Z,21.00
2018-11-11T12:09:59.473Z,21.00
2018-11-11T12:12:29.778Z,21.00
2018-11-11T12:15:00.278Z,21.00
2018-11-11T12:17:30.571Z,21.00
2018-11-11T12:20:00.843Z,21.00
2018-11-11T12:22:31.155Z,21.00
2018-11-11T12:25:01.487Z,21.00
2018-11-11T12:27:31.778Z,21.00
2018-11-11T12:30:02.106Z,21.00
2018-11-11T12:32:32.409Z,21.00
2018-11-11T12:35:02.780Z,21.00
2018-11-11T12:37:33.030Z,21.00
2018-11-11T12:40:03.518Z,21.00
2018-11-11T12:42:33.661Z,21.00
2018-11-11T12:45:03.924Z,21.00
2018-11-11T12:47:34.213Z,21.00
2018-11-11T12:50:04.569Z,21.00
2018-11-11T12:52:34.883Z,21.10
2018-11-11T12:55:05.973Z,21.00
2018-11-11T12:57:36.710Z,21.00
2018-11-11T13:00:11.142Z,21.00
2018-11-11T13:02:41.742Z,21.00
2018-11-11T13:05:12.698Z,21.00
2018-11-11T13:07:42.990Z,21.00
2018-11-11T13:10:14.289Z,21.00
2018-11-11T13:12:45.126Z,21.00
2018-11-11T13:15:16.055Z,21.00
2018-11-11T13:17:46.329Z,21.00
2018-11-11T13:20:17.780Z,21.00
2018-11-11T13:22:48.252Z,21.00
2018-11-11T13:25:18.414Z,21.00
2018-11-11T13:27:48.702Z,21.00
2018-11-11T13:30:19.016Z,21.00
2018-11-11T13:32:49.304Z,21.00
2018-11-11T13:35:19.571Z,21.00
2018-11-11T13:37:49.894Z,21.00
2018-11-11T13:40:20.315Z,21.00
2018-11-11T13:42:50.590Z,21.00
2018-11-11T13:45:27.759Z,21.00
2018-11-11T13:47:58.048Z,21.00
2018-11-11T13:50:28.386Z,21.00
2018-11-11T13:52:58.678Z,21.00
2018-11-11T13:55:28.981Z,21.00
2018-11-11T13:57:59.295Z,21.00
2018-11-11T14:00:29.578Z,21.00
2018-11-11T14:02:59.853Z,21.00
2018-11-11T14:05:30.161Z,21.00
2018-11-11T14:08:00.506Z,21.00
2018-11-11T14:10:30.730Z,21.00
2018-11-11T14:13:01.013Z,21.00
2018-11-11T14:15:31.343Z,21.00
2018-11-11T14:18:01.672Z,21.00
2018-11-11T14:20:31.962Z,21.00
2018-11-11T14:23:02.250Z,21.00
2018-11-11T14:25:32.563Z,21.00
2018-11-11T14:28:02.900Z,21.00
2018-11-11T14:30:33.204Z,21.00
2018-11-11T14:33:03.454Z,21.00
2018-11-11T14:35:33.742Z,21.00
2018-11-11T14:38:04.076Z,21.00
2018-11-11T14:40:34.313Z,21.00
2018-11-11T14:43:04.597Z,21.00
2018-11-11T14:45:34.878Z,21.00
2018-11-11T14:48:05.190Z,21.00
2018-11-11T14:50:35.503Z,21.00
2018-11-11T14:53:05.897Z,20.90
2018-11-11T14:55:36.218Z,21.00
2018-11-11T14:58:06.825Z,21.00
2018-11-11T15:00:37.174Z,20.90
2018-11-11T15:03:11.838Z,20.90
2018-11-11T15:05:42.151Z,20.90
2018-11-11T15:08:12.482Z,20.90
2018-11-11T15:10:43.034Z,20.90
2018-11-11T15:13:14.285Z,20.90
2018-11-11T15:15:44.582Z,20.90
2018-11-11T15:18:14.862Z,20.80
2018-11-11T15:20:45.309Z,20.80
2018-11-11T15:23:15.481Z,20.90
2018-11-11T15:25:45.805Z,20.90
2018-11-11T15:28:16.094Z,20.90
2018-11-11T15:30:46.639Z,20.90
2018-11-11T15:33:16.858Z,20.80
2018-11-11T15:35:47.190Z,20.80
2018-11-11T15:38:18.154Z,20.80
2018-11-11T15:40:48.434Z,20.80
2018-11-11T15:43:18.713Z,20.80
2018-11-11T15:45:49.044Z,20.80
2018-11-11T15:48:19.301Z,20.80
2018-11-11T15:50:49.582Z,20.80
2018-11-11T15:53:19.975Z,20.80
2018-11-11T15:55:50.250Z,20.80
2018-11-11T15:58:20.556Z,20.70
2018-11-11T16:00:50.834Z,20.70
2018-11-11T16:03:21.145Z,20.70
2018-11-11T16:05:54.448Z,20.70
2018-11-11T16:08:24.714Z,20.70
2018-11-11T16:10:54.985Z,20.60
2018-11-11T16:13:25.294Z,20.60
2018-11-11T16:15:55.607Z,20.60
2018-11-11T16:18:25.956Z,20.60
2018-11-11T16:20:56.307Z,20.60
2018-11-11T16:23:26.613Z,20.60
2018-11-11T16:25:56.928Z,20.60
2018-11-11T16:28:27.274Z,20.50
2018-11-11T16:30:57.579Z,20.50
2018-11-11T16:33:27.929Z,20.50
2018-11-11T16:35:58.316Z,20.50
2018-11-11T16:38:28.598Z,20.50
2018-11-11T16:40:59.055Z,20.50
2018-11-11T16:43:29.234Z,20.50
2018-11-11T16:45:59.534Z,20.40
2018-11-11T16:48:29.929Z,20.40
2018-11-11T16:51:00.237Z,20.40
2018-11-11T16:53:30.582Z,20.40
2018-11-11T16:56:00.894Z,20.40
2018-11-11T16:58:31.226Z,20.30
2018-11-11T17:01:01.610Z,20.30
2018-11-11T17:03:31.921Z,20.30
2018-11-11T17:06:02.342Z,20.30
2018-11-11T17:08:32.643Z,20.20
2018-11-11T17:11:03.414Z,20.20
2018-11-11T17:13:34.153Z,20.20
2018-11-11T17:16:04.674Z,20.20
2018-11-11T17:18:37.064Z,20.20
2018-11-11T17:21:07.523Z,20.20
2018-11-11T17:23:39.134Z,20.20
2018-11-11T17:26:09.752Z,20.20
2018-11-11T17:28:41.330Z,20.20
2018-11-11T17:31:11.593Z,20.20
2018-11-11T17:33:42.022Z,20.10
2018-11-11T17:36:12.336Z,20.10
2018-11-11T17:38:42.840Z,20.00
2018-11-11T17:41:13.582Z,20.10
2018-11-11T17:43:44.449Z,20.00
2018-11-11T17:46:14.763Z,20.00
2018-11-11T17:48:45.418Z,20.00
2018-11-11T17:51:15.962Z,20.00
2018-11-11T17:53:46.305Z,20.00
2018-11-11T17:56:16.609Z,20.00
2018-11-11T17:58:46.950Z,20.00
2018-11-11T18:01:17.413Z,20.00
2018-11-11T18:03:47.906Z,19.90
2018-11-11T18:06:18.364Z,19.90
2018-11-11T18:08:48.710Z,19.90
2018-11-11T18:11:19.097Z,19.90
2018-11-11T18:13:49.612Z,19.90
2018-11-11T18:16:19.930Z,19.90
2018-11-11T18:18:50.360Z,19.80
2018-11-11T18:21:21.965Z,19.90
2018-11-11T18:23:53.549Z,19.90
2018-11-11T18:26:24.250Z,19.90
2018-11-11T18:28:54.830Z,19.80
2018-11-11T18:31:25.766Z,19.80
2018-11-11T18:33:56.167Z,19.90
2018-11-11T18:36:27.002Z,19.80
2018-11-11T18:38:57.634Z,19.80
2018-11-11T18:41:28.034Z,19.90
2018-11-11T18:43:58.914Z,19.90
2018-11-11T18:46:29.921Z,19.80
2018-11-11T18:49:00.297Z,19.80
2018-11-11T18:51:31.203Z,19.90
2018-11-11T18:54:01.879Z,19.90
2018-11-11T18:56:33.267Z,19.90
2018-11-11T18:59:04.058Z,19.90
2018-11-11T19:01:34.584Z,19.90
2018-11-11T19:04:06.284Z,20.00
2018-11-11T19:06:37.266Z,20.00
2018-11-11T19:09:12.821Z,20.00
2018-11-11T19:11:43.373Z,20.00
2018-11-11T19:14:13.894Z,20.00
2018-11-11T19:16:45.608Z,20.00
2018-11-11T19:19:17.735Z,20.00
2018-11-11T19:21:53.786Z,20.00
2018-11-11T19:24:24.701Z,20.00
2018-11-11T19:26:54.829Z,20.00
2018-11-11T19:29:25.535Z,20.00
2018-11-11T19:31:56.256Z,20.00
2018-11-11T19:34:26.511Z,20.00
2018-11-11T19:36:57.478Z,20.00
2018-11-11T19:39:28.059Z,20.00
2018-11-11T19:41:58.918Z,20.00
2018-11-11T19:44:30.705Z,20.00
2018-11-11T19:47:00.929Z,20.00
2018-11-11T19:49:31.357Z,20.00
2018-11-11T19:52:01.623Z,20.00
2018-11-11T19:54:31.867Z,20.00
2018-11-11T19:57:02.582Z,20.00
2018-11-11T19:59:32.793Z,20.00
2018-11-11T20:02:03.117Z,20.00
2018-11-11T20:04:33.366Z,20.00
2018-11-11T20:07:03.780Z,20.00
2018-11-11T20:09:34.037Z,20.00
2018-11-11T20:12:04.291Z,20.00
2018-11-11T20:14:34.716Z,20.00
2018-11-11T20:17:06.366Z,20.00
2018-11-11T20:19:36.614Z,20.00
2018-11-11T20:22:06.858Z,20.00
2018-11-11T20:24:37.207Z,20.00
2018-11-11T20:27:07.449Z,20.00
2018-11-11T20:29:37.670Z,20.00
2018-11-11T20:32:07.914Z,20.00
2018-11-11T20:34:38.173Z,20.00
2018-11-11T20:37:08.597Z,20.00
2018-11-11T20:39:38.702Z,20.00
2018-11-11T20:42:08.963Z,20.00
2018-11-11T20:44:39.227Z,20.00
2018-11-11T20:47:09.567Z,20.00
2018-11-11T20:49:39.866Z,20.00
2018-11-11T20:52:10.117Z,20.00
2018-11-11T20:54:40.341Z,20.00
2018-11-11T20:57:10.602Z,20.00
2018-11-11T20:59:40.862Z,20.00
2018-11-11T21:02:11.172Z,20.00
2018-11-11T21:04:41.402Z,20.00
2018-11-11T21:07:11.689Z,20.00
2018-11-11T21:09:41.923Z,20.00
2018-11-11T21:12:12.173Z,20.00
2018-11-11T21:14:42.442Z,20.00
2018-11-11T21:17:12.682Z,20.00
2018-11-11T21:19:42.941Z,20.00
2018-11-11T21:22:15.273Z,20.00
2018-11-11T21:24:45.605Z,20.00
2018-11-11T21:27:15.862Z,20.00
2018-11-11T21:29:46.541Z,20.00
2018-11-11T21:32:16.837Z,20.00
2018-11-11T21:34:47.022Z,20.00
2018-11-11T21:37:17.285Z,20.00
2018-11-11T21:39:47.623Z,20.00
2018-11-11T21:42:17.881Z,20.00
2018-11-11T21:44:48.184Z,20.00
2018-11-11T21:47:18.366Z,20.00
2018-11-11T21:49:48.622Z,20.00
2018-11-11T21:52:18.878Z,20.10
2018-11-11T21:54:49.137Z,20.00
2018-11-11T21:57:19.409Z,20.10
2018-11-11T21:59:49.651Z,20.10
2018-11-11T22:02:19.948Z,20.10
2018-11-11T22:04:50.154Z,20.10
2018-11-11T22:07:20.408Z,20.10
2018-11-11T22:09:50.661Z,20.10
2018-11-11T22:12:20.921Z,20.10
2018-11-11T22:14:51.174Z,20.10
2018-11-11T22:17:21.450Z,20.10
2018-11-11T22:19:51.715Z,20.20
2018-11-11T22:22:21.998Z,20.20
2018-11-11T22:24:52.211Z,20.20
2018-11-11T22:27:22.460Z,20.20
2018-11-11T22:29:52.709Z,20.20
2018-11-11T22:32:22.951Z,20.20
2018-11-11T22:34:53.293Z,20.20
2018-11-11T22:37:23.538Z,20.20
2018-11-11T22:39:53.798Z,20.20
2018-11-11T22:42:24.092Z,20.20
2018-11-11T22:44:54.329Z,20.20
2018-11-11T22:47:24.629Z,20.20
2018-11-11T22:49:54.891Z,20.10
2018-11-11T22:52:25.137Z,20.10
2018-11-11T22:54:55.381Z,20.10
2018-11-11T22:57:25.619Z,20.10
2018-11-11T22:59:55.930Z,20.10
2018-11-11T23:02:26.114Z,20.10
2018-11-11T23:04:56.373Z,20.10
2018-11-11T23:07:27.045Z,20.10
2018-11-11T23:09:57.309Z,20.10
2018-11-11T23:12:27.538Z,20.20
2018-11-11T23:14:57.815Z,20.20
2018-11-11T23:17:28.061Z,20.20
2018-11-11T23:19:58.342Z,20.20
2018-11-11T23:22:28.906Z,20.20
2018-11-11T23:24:59.445Z,20.20
2018-11-11T23:27:29.685Z,20.20
2018-11-11T23:29:59.946Z,20.20
2018-11-11T23:32:30.176Z,20.20
2018-11-11T23:35:00.428Z,20.20
2018-11-11T23:37:30.641Z,20.30
2018-11-11T23:40:00.881Z,20.30
2018-11-11T23:42:31.118Z,20.30
2018-11-11T23:45:01.374Z,20.30
2018-11-11T23:47:31.594Z,20.30
2018-11-11T23:50:01.859Z,20.30
2018-11-11T23:52:32.131Z,20.30
2018-11-11T23:55:02.382Z,20.30
2018-11-11T23:57:32.603Z,20.30
